Time;durP1;ratioP1;P1;durP2;ratioP2;P2;SDS_P1;SDS_P2;PMS_P1;PMS_P2;Temp;Humidity;BMP_temperature;BMP_pressure;BME280_temperature;BME280_humidity;BME280_pressure;Samples;Min_cycle;Max_cycle;Signal;HPM_P1;HPM_P2
2021/11/18 00:01:19;;;;;;;36.42;6.43;;;;;;;;;;5016245;28;20072;-61
2021/11/18 00:03:46;;;;;;;31.35;6.30;;;;;;;;;;5022299;28;20104;-59
2021/11/18 00:06:12;;;;;;;21.95;5.78;;;;;;;;;;5017146;28;20497;-59
2021/11/18 00:08:38;;;;;;;33.67;6.35;;;;;;;;;;5017526;28;20707;-60
2021/11/18 00:11:07;;;;;;;18.35;5.30;;;;;;;;;;5017283;28;20029;-60
2021/11/18 00:13:35;;;;;;;16.98;5.22;;;;;;;;;;5018654;28;20523;-61
2021/11/18 00:16:01;;;;;;;20.83;6.22;;;;;;;;;;5020308;28;20489;-61
2021/11/18 00:18:29;;;;;;;17.52;4.97;;;;;;;;;;5021295;28;20222;-59
2021/11/18 00:20:59;;;;;;;21.70;4.78;;;;;;;;;;5016259;28;20474;-59
2021/11/18 00:23:32;;;;;;;33.53;6.40;;;;;;;;;;5016970;28;20025;-61
2021/11/18 00:25:58;;;;;;;19.02;5.05;;;;;;;;;;5020340;28;20465;-61
2021/11/18 00:28:23;;;;;;;15.88;5.22;;;;;;;;;;5019084;28;20030;-60
2021/11/18 00:30:49;;;;;;;15.30;4.18;;;;;;;;;;5017436;28;20036;-61
2021/11/18 00:33:15;;;;;;;22.65;5.78;;;;;;;;;;5015394;28;20026;-61
2021/11/18 00:35:42;;;;;;;25.88;5.57;;;;;;;;;;5020141;28;20034;-61
2021/11/18 00:38:08;;;;;;;18.00;5.55;;;;;;;;;;5012937;28;20056;-61
2021/11/18 00:40:37;;;;;;;18.70;6.32;;;;;;;;;;5016748;28;20084;-61
2021/11/18 00:43:06;;;;;;;19.15;5.22;;;;;;;;;;5011162;28;20029;-61
2021/11/18 00:45:32;;;;;;;14.68;4.32;;;;;;;;;;5015775;28;20509;-60
2021/11/18 00:47:58;;;;;;;8.20;3.47;;;;;;;;;;5014342;28;20049;-61
2021/11/18 00:50:29;;;;;;;11.93;3.97;;;;;;;;;;5016246;28;20132;-60
2021/11/18 00:52:54;;;;;;;16.25;4.32;;;;;;;;;;5019390;28;20036;-60
2021/11/18 00:55:21;;;;;;;8.85;3.58;;;;;;;;;;5016521;28;20034;-61
2021/11/18 00:57:47;;;;;;;15.90;4.13;;;;;;;;;;5016797;28;20022;-61
2021/11/18 01:00:25;;;;;;;7.18;3.08;;;;;;;;;;5013964;28;20103;-61
2021/11/18 01:02:51;;;;;;;11.68;3.03;;;;;;;;;;5017505;28;20382;-61
2021/11/18 01:05:19;;;;;;;13.90;3.45;;;;;;;;;;5022523;28;20052;-61
2021/11/18 01:07:44;;;;;;;8.48;2.55;;;;;;;;;;5018349;28;20074;-60
2021/11/18 01:10:14;;;;;;;9.02;2.63;;;;;;;;;;5016509;28;20041;-61
2021/11/18 01:12:40;;;;;;;10.40;3.63;;;;;;;;;;5014649;28;20493;-61
2021/11/18 01:15:10;;;;;;;10.52;3.40;;;;;;;;;;5015753;28;20033;-61
2021/11/18 01:17:36;;;;;;;8.32;2.83;;;;;;;;;;5031991;28;20050;-59
2021/11/18 01:20:05;;;;;;;6.25;2.65;;;;;;;;;;5018568;28;20609;-61
2021/11/18 01:22:31;;;;;;;8.98;2.55;;;;;;;;;;5016364;28;20079;-59
2021/11/18 01:24:57;;;;;;;14.27;2.95;;;;;;;;;;5016826;28;20366;-59
2021/11/18 01:27:23;;;;;;;7.07;2.65;;;;;;;;;;5013652;28;20096;-59
2021/11/18 01:29:49;;;;;;;10.35;3.05;;;;;;;;;;5016183;28;20451;-59
2021/11/18 01:32:14;;;;;;;10.23;2.88;;;;;;;;;;5018195;28;20029;-60
2021/11/18 01:34:40;;;;;;;7.30;2.63;;;;;;;;;;5003527;28;20033;-60
2021/11/18 01:37:06;;;;;;;10.30;2.67;;;;;;;;;;5012446;28;20029;-60
2021/11/18 01:39:31;;;;;;;11.88;2.88;;;;;;;;;;5015249;28;20040;-60
2021/11/18 01:41:57;;;;;;;15.32;3.50;;;;;;;;;;5017788;28;20036;-60
2021/11/18 01:44:28;;;;;;;7.50;2.88;;;;;;;;;;5011698;28;20049;-60
2021/11/18 01:46:54;;;;;;;13.32;3.60;;;;;;;;;;5016307;28;20033;-59
2021/11/18 01:49:20;;;;;;;4.65;2.13;;;;;;;;;;5015088;28;20378;-60
2021/11/18 01:51:49;;;;;;;8.57;2.90;;;;;;;;;;5021060;28;20471;-60
2021/11/18 01:54:17;;;;;;;16.67;3.45;;;;;;;;;;5014327;28;20900;-60
2021/11/18 01:56:44;;;;;;;5.63;2.30;;;;;;;;;;5018228;28;20116;-60
2021/11/18 01:59:17;;;;;;;5.07;2.70;;;;;;;;;;5019623;28;20083;-60
2021/11/18 02:01:47;;;;;;;14.13;2.63;;;;;;;;;;5017511;28;21401;-60
2021/11/18 02:04:17;;;;;;;10.10;2.83;;;;;;;;;;5021359;28;20037;-61
2021/11/18 02:06:48;;;;;;;10.55;2.83;;;;;;;;;;5019894;28;20038;-60
2021/11/18 02:09:17;;;;;;;3.97;1.95;;;;;;;;;;5027473;28;20028;-60
2021/11/18 02:11:55;;;;;;;6.47;2.25;;;;;;;;;;5015694;28;20033;-60
2021/11/18 02:14:24;;;;;;;11.48;2.97;;;;;;;;;;5020335;28;20212;-60
2021/11/18 02:16:50;;;;;;;6.45;2.05;;;;;;;;;;5004349;28;20021;-60
2021/11/18 02:19:18;;;;;;;6.45;2.47;;;;;;;;;;5018859;28;20507;-60
2021/11/18 02:21:51;;;;;;;8.32;2.40;;;;;;;;;;5015727;28;20455;-60
2021/11/18 02:24:20;;;;;;;12.38;2.70;;;;;;;;;;5019676;28;20033;-60
2021/11/18 02:26:45;;;;;;;13.00;3.35;;;;;;;;;;5022418;28;20500;-60
2021/11/18 02:29:11;;;;;;;11.88;3.00;;;;;;;;;;5020086;28;20072;-60
2021/11/18 02:31:43;;;;;;;14.35;3.45;;;;;;;;;;5016392;28;20055;-59
2021/11/18 02:34:22;;;;;;;11.48;3.53;;;;;;;;;;5018773;28;20032;-60
2021/11/18 02:36:48;;;;;;;12.60;3.78;;;;;;;;;;5020868;28;20299;-60
2021/11/18 02:39:16;;;;;;;12.40;3.22;;;;;;;;;;5018507;28;20339;-60
2021/11/18 02:41:42;;;;;;;9.63;3.15;;;;;;;;;;5022495;28;20103;-60
2021/11/18 02:44:09;;;;;;;15.38;3.53;;;;;;;;;;5021048;28;20058;-60
2021/11/18 02:46:35;;;;;;;15.27;3.10;;;;;;;;;;5017700;28;20034;-61
2021/11/18 02:49:02;;;;;;;10.93;3.60;;;;;;;;;;5016952;28;20034;-60
2021/11/18 02:51:28;;;;;;;13.32;3.22;;;;;;;;;;5018522;28;20492;-60
2021/11/18 02:53:54;;;;;;;11.93;4.05;;;;;;;;;;5023358;28;20049;-59
2021/11/18 02:56:19;;;;;;;9.68;3.15;;;;;;;;;;5016073;28;20030;-60
2021/11/18 02:58:46;;;;;;;9.90;2.97;;;;;;;;;;5017612;28;20512;-60
2021/11/18 03:01:19;;;;;;;6.90;2.72;;;;;;;;;;5016924;28;20219;-60
2021/11/18 03:03:45;;;;;;;8.63;3.33;;;;;;;;;;5015997;28;20033;-60
2021/11/18 03:06:11;;;;;;;12.27;3.22;;;;;;;;;;5015878;28;20120;-61
2021/11/18 03:08:37;;;;;;;10.48;3.80;;;;;;;;;;5024698;28;20021;-61
2021/11/18 03:11:03;;;;;;;9.43;3.92;;;;;;;;;;5023878;28;20515;-60
2021/11/18 03:13:31;;;;;;;9.43;3.20;;;;;;;;;;5018129;28;20033;-61
2021/11/18 03:15:57;;;;;;;11.10;3.35;;;;;;;;;;5018204;28;20060;-59
2021/11/18 03:18:24;;;;;;;9.93;3.15;;;;;;;;;;5019565;28;20326;-60
2021/11/18 03:20:52;;;;;;;14.70;3.70;;;;;;;;;;5024320;28;20036;-61
2021/11/18 03:23:18;;;;;;;11.82;3.53;;;;;;;;;;5017430;28;20029;-60
2021/11/18 03:25:44;;;;;;;9.70;3.50;;;;;;;;;;5026222;28;20507;-59
2021/11/18 03:28:10;;;;;;;11.38;2.90;;;;;;;;;;5021027;28;20036;-60
2021/11/18 03:30:41;;;;;;;19.63;4.18;;;;;;;;;;5016883;28;20033;-59
2021/11/18 03:33:15;;;;;;;10.85;3.28;;;;;;;;;;5023928;28;20029;-60
2021/11/18 03:35:41;;;;;;;18.30;3.88;;;;;;;;;;5024916;28;20029;-61
2021/11/18 03:38:07;;;;;;;16.17;3.78;;;;;;;;;;5022783;28;20113;-60
2021/11/18 03:40:33;;;;;;;14.02;3.05;;;;;;;;;;5017146;28;20065;-59
2021/11/18 03:42:59;;;;;;;8.80;2.65;;;;;;;;;;5019106;28;20041;-60
2021/11/18 03:45:28;;;;;;;10.85;2.63;;;;;;;;;;5016271;28;20228;-60
2021/11/18 03:47:54;;;;;;;10.18;3.10;;;;;;;;;;5022573;28;20447;-59
2021/11/18 03:50:19;;;;;;;8.93;3.00;;;;;;;;;;5023093;28;20038;-60
2021/11/18 03:52:46;;;;;;;10.02;2.75;;;;;;;;;;5022396;28;20032;-60
2021/11/18 03:55:15;;;;;;;9.68;2.35;;;;;;;;;;5022832;28;20404;-60
2021/11/18 03:57:42;;;;;;;9.80;3.10;;;;;;;;;;5016587;28;20013;-60
2021/11/18 04:00:12;;;;;;;4.50;2.28;;;;;;;;;;5017359;28;20046;-61
2021/11/18 04:02:38;;;;;;;12.13;2.72;;;;;;;;;;5010572;28;20033;-60
2021/11/18 04:05:04;;;;;;;8.90;3.40;;;;;;;;;;5019863;28;20789;-61
2021/11/18 04:07:33;;;;;;;10.27;2.95;;;;;;;;;;5013195;28;20111;-61
2021/11/18 04:09:58;;;;;;;10.43;2.67;;;;;;;;;;5017560;28;20553;-61
2021/11/18 04:12:24;;;;;;;8.95;3.22;;;;;;;;;;5012652;28;20034;-60
2021/11/18 04:14:50;;;;;;;7.90;2.60;;;;;;;;;;5017271;28;20268;-61
2021/11/18 04:17:16;;;;;;;8.07;2.35;;;;;;;;;;5019566;28;20639;-61
2021/11/18 04:19:41;;;;;;;7.45;2.72;;;;;;;;;;5018915;28;20030;-60
2021/11/18 04:22:08;;;;;;;15.63;3.00;;;;;;;;;;5018686;28;20040;-60
2021/11/18 04:24:35;;;;;;;9.48;2.83;;;;;;;;;;5014261;28;20036;-60
2021/11/18 04:27:02;;;;;;;5.43;2.40;;;;;;;;;;5020544;28;20175;-60
2021/11/18 04:29:28;;;;;;;6.65;2.60;;;;;;;;;;5014953;28;20033;-61
2021/11/18 04:32:01;;;;;;;10.15;3.08;;;;;;;;;;5017860;28;20026;-60
2021/11/18 04:34:27;;;;;;;5.93;2.28;;;;;;;;;;5019836;28;20022;-61
2021/11/18 04:36:52;;;;;;;4.90;2.20;;;;;;;;;;5019800;28;20109;-60
2021/11/18 04:39:18;;;;;;;12.50;2.58;;;;;;;;;;5019887;28;20104;-60
2021/11/18 04:41:44;;;;;;;14.95;2.35;;;;;;;;;;5020608;28;20021;-60
2021/11/18 04:44:10;;;;;;;11.00;1.95;;;;;;;;;;5019567;28;20067;-60
2021/11/18 04:46:36;;;;;;;10.70;2.03;;;;;;;;;;5017287;28;20373;-61
2021/11/18 04:49:04;;;;;;;7.57;2.38;;;;;;;;;;5020897;28;20454;-61
2021/11/18 04:51:30;;;;;;;11.40;2.00;;;;;;;;;;5013321;28;20057;-59
2021/11/18 04:53:56;;;;;;;6.75;2.13;;;;;;;;;;5017553;28;20396;-61
2021/11/18 04:56:22;;;;;;;5.82;1.98;;;;;;;;;;5017647;28;20029;-60
2021/11/18 04:58:48;;;;;;;7.78;2.50;;;;;;;;;;5016737;28;20198;-62
2021/11/18 05:01:15;;;;;;;6.75;2.25;;;;;;;;;;5016964;28;20043;-60
2021/11/18 05:03:42;;;;;;;4.80;2.22;;;;;;;;;;5017280;28;20053;-59
2021/11/18 05:06:08;;;;;;;5.57;2.15;;;;;;;;;;5017849;28;20037;-62
2021/11/18 05:08:34;;;;;;;2.55;1.52;;;;;;;;;;5018779;28;20026;-61
2021/11/18 05:11:00;;;;;;;6.70;2.38;;;;;;;;;;5019672;28;20032;-60
2021/11/18 05:13:27;;;;;;;1.98;1.00;;;;;;;;;;5019614;28;20105;-60
2021/11/18 05:15:54;;;;;;;6.43;1.95;;;;;;;;;;5019306;28;20774;-60
2021/11/18 05:18:20;;;;;;;4.45;1.63;;;;;;;;;;5020971;28;20032;-61
2021/11/18 05:20:46;;;;;;;2.67;1.17;;;;;;;;;;5020746;28;20029;-61
2021/11/18 05:23:15;;;;;;;7.10;1.50;;;;;;;;;;5012280;28;20057;-61
2021/11/18 05:25:40;;;;;;;3.05;1.50;;;;;;;;;;5017546;28;20030;-61
2021/11/18 05:28:06;;;;;;;1.70;1.00;;;;;;;;;;5020237;28;20052;-61
2021/11/18 05:30:33;;;;;;;2.33;0.90;;;;;;;;;;5019398;28;20484;-61
2021/11/18 05:33:02;;;;;;;1.40;0.82;;;;;;;;;;5015150;28;20033;-61
2021/11/18 05:35:30;;;;;;;5.53;1.17;;;;;;;;;;5015606;28;20036;-61
2021/11/18 05:37:56;;;;;;;2.90;1.00;;;;;;;;;;5025991;28;20026;-59
2021/11/18 05:40:23;;;;;;;1.30;1.00;;;;;;;;;;5021795;28;20048;-61
2021/11/18 05:42:49;;;;;;;3.90;1.02;;;;;;;;;;5024925;28;20025;-61
2021/11/18 05:45:18;;;;;;;3.38;0.80;;;;;;;;;;5018692;28;20073;-61
2021/11/18 05:47:44;;;;;;;1.15;0.88;;;;;;;;;;5016201;28;20061;-59
2021/11/18 05:50:12;;;;;;;2.42;0.70;;;;;;;;;;5019264;28;20115;-60
2021/11/18 05:52:38;;;;;;;1.67;0.70;;;;;;;;;;5021690;28;20496;-60
2021/11/18 05:55:05;;;;;;;5.18;1.10;;;;;;;;;;5026727;28;20044;-60
2021/11/18 05:57:31;;;;;;;1.25;1.15;;;;;;;;;;5021545;28;20112;-60
2021/11/18 05:59:57;;;;;;;4.18;0.88;;;;;;;;;;5026151;28;20179;-60
2021/11/18 06:02:23;;;;;;;2.88;1.08;;;;;;;;;;5021721;28;20033;-61
2021/11/18 06:04:49;;;;;;;1.00;0.60;;;;;;;;;;5024210;28;20042;-61
2021/11/18 06:07:15;;;;;;;1.02;0.50;;;;;;;;;;5024972;28;20037;-61
2021/11/18 06:09:41;;;;;;;2.25;0.70;;;;;;;;;;5024587;28;20161;-61
2021/11/18 06:12:09;;;;;;;1.33;0.70;;;;;;;;;;5021967;28;20563;-61
2021/11/18 06:14:34;;;;;;;0.90;0.50;;;;;;;;;;5022721;28;20044;-61
2021/11/18 06:17:00;;;;;;;2.85;0.40;;;;;;;;;;5024652;28;20026;-61
2021/11/18 06:19:26;;;;;;;0.40;0.35;;;;;;;;;;5024615;28;20022;-61
2021/11/18 06:21:53;;;;;;;1.90;0.57;;;;;;;;;;5019730;28;20025;-61
2021/11/18 06:24:20;;;;;;;3.72;0.45;;;;;;;;;;5019301;28;20035;-61
2021/11/18 06:26:46;;;;;;;3.92;0.65;;;;;;;;;;5018187;28;20034;-62
2021/11/18 06:29:12;;;;;;;2.00;0.70;;;;;;;;;;5021241;28;20048;-61
2021/11/18 06:31:38;;;;;;;1.48;0.50;;;;;;;;;;5020237;28;20048;-61
2021/11/18 06:34:04;;;;;;;3.20;0.65;;;;;;;;;;5025191;28;20475;-61
2021/11/18 06:36:29;;;;;;;1.40;0.55;;;;;;;;;;5023998;28;20420;-61
2021/11/18 06:38:55;;;;;;;1.05;0.50;;;;;;;;;;5019114;28;20510;-61
2021/11/18 06:41:22;;;;;;;1.85;0.47;;;;;;;;;;5022538;28;20320;-62
2021/11/18 06:43:49;;;;;;;2.40;0.60;;;;;;;;;;5017029;28;20072;-61
2021/11/18 06:46:15;;;;;;;1.00;0.43;;;;;;;;;;5021987;28;20021;-62
2021/11/18 06:48:41;;;;;;;1.50;0.40;;;;;;;;;;5020341;28;20519;-62
2021/11/18 06:51:11;;;;;;;3.80;0.50;;;;;;;;;;5021750;28;20442;-62
2021/11/18 06:53:39;;;;;;;1.20;0.63;;;;;;;;;;5022634;28;20013;-62
2021/11/18 06:56:05;;;;;;;0.60;0.60;;;;;;;;;;5019176;28;20029;-60
2021/11/18 06:58:31;;;;;;;3.35;0.60;;;;;;;;;;5017241;28;20027;-60
2021/11/18 07:00:57;;;;;;;1.08;0.50;;;;;;;;;;5017460;28;20026;-60
2021/11/18 07:03:23;;;;;;;1.30;0.50;;;;;;;;;;5021157;28;20042;-60
2021/11/18 07:05:49;;;;;;;2.15;0.60;;;;;;;;;;5022255;28;20042;-60
2021/11/18 07:08:15;;;;;;;0.88;0.32;;;;;;;;;;5016877;28;20013;-60
2021/11/18 07:10:44;;;;;;;1.02;0.32;;;;;;;;;;5018832;28;20029;-61
2021/11/18 07:13:22;;;;;;;0.57;0.35;;;;;;;;;;5019638;28;20496;-61
2021/11/18 07:15:48;;;;;;;1.75;0.30;;;;;;;;;;5023489;28;20038;-60
2021/11/18 07:18:14;;;;;;;1.23;0.30;;;;;;;;;;5016756;28;20044;-61
2021/11/18 07:20:40;;;;;;;1.55;0.40;;;;;;;;;;5020063;28;20037;-60
2021/11/18 07:23:06;;;;;;;1.02;0.50;;;;;;;;;;5021259;28;20030;-61
2021/11/18 07:25:32;;;;;;;1.30;0.85;;;;;;;;;;5023132;28;20100;-61
2021/11/18 07:27:59;;;;;;;0.95;0.43;;;;;;;;;;5020279;28;20038;-61
2021/11/18 07:30:25;;;;;;;3.28;0.70;;;;;;;;;;5024885;28;20061;-61
2021/11/18 07:32:52;;;;;;;0.98;0.50;;;;;;;;;;5020619;28;20117;-60
2021/11/18 07:35:18;;;;;;;0.30;0.30;;;;;;;;;;5014465;28;20029;-61
2021/11/18 07:37:44;;;;;;;0.70;0.38;;;;;;;;;;5015501;28;20026;-61
2021/11/18 07:40:13;;;;;;;0.73;0.60;;;;;;;;;;5012499;28;20037;-61
2021/11/18 07:42:39;;;;;;;3.53;0.70;;;;;;;;;;5018509;28;20120;-61
2021/11/18 07:45:07;;;;;;;0.40;0.38;;;;;;;;;;5015547;28;20580;-61
2021/11/18 07:47:34;;;;;;;1.50;0.60;;;;;;;;;;5016977;28;20026;-61
2021/11/18 07:49:59;;;;;;;2.38;0.77;;;;;;;;;;5016989;28;20033;-61
2021/11/18 07:52:25;;;;;;;2.75;0.50;;;;;;;;;;5016907;28;20087;-61
2021/11/18 07:54:51;;;;;;;8.63;1.60;;;;;;;;;;5016621;28;20033;-61
2021/11/18 07:57:16;;;;;;;0.50;0.30;;;;;;;;;;5018341;28;20113;-61
2021/11/18 07:59:42;;;;;;;2.80;0.50;;;;;;;;;;5012522;28;20038;-61
2021/11/18 08:02:09;;;;;;;0.40;0.40;;;;;;;;;;5015071;28;20045;-61
2021/11/18 08:04:34;;;;;;;4.57;0.47;;;;;;;;;;5017565;28;20091;-62
2021/11/18 08:07:03;;;;;;;2.05;0.70;;;;;;;;;;5017512;28;20029;-61
2021/11/18 08:09:29;;;;;;;1.55;0.52;;;;;;;;;;5019217;28;20084;-61
2021/11/18 08:11:57;;;;;;;0.57;0.40;;;;;;;;;;5016052;28;20061;-61
2021/11/18 08:14:23;;;;;;;4.10;0.60;;;;;;;;;;5020240;28;20095;-62
2021/11/18 08:16:49;;;;;;;4.20;0.47;;;;;;;;;;5016815;28;20392;-61
2021/11/18 08:19:15;;;;;;;2.97;0.50;;;;;;;;;;5014783;28;20042;-61
2021/11/18 08:21:43;;;;;;;1.55;0.43;;;;;;;;;;5015737;28;20051;-61
2021/11/18 08:24:12;;;;;;;3.63;0.57;;;;;;;;;;5016269;28;20498;-62
2021/11/18 08:26:39;;;;;;;3.20;0.52;;;;;;;;;;5015786;28;20044;-61
2021/11/18 08:29:06;;;;;;;4.82;0.28;;;;;;;;;;5017373;28;20045;-61
2021/11/18 08:31:32;;;;;;;1.13;0.55;;;;;;;;;;5021240;28;20033;-61
2021/11/18 08:33:58;;;;;;;4.22;0.80;;;;;;;;;;5016535;28;20064;-61
2021/11/18 08:36:24;;;;;;;3.58;0.80;;;;;;;;;;5014060;28;20042;-62
2021/11/18 08:38:49;;;;;;;1.63;0.77;;;;;;;;;;5012534;28;20485;-61
2021/11/18 08:41:16;;;;;;;4.20;0.50;;;;;;;;;;5012366;28;20393;-62
2021/11/18 08:43:45;;;;;;;0.73;0.50;;;;;;;;;;5018986;28;20412;-61
2021/11/18 08:46:13;;;;;;;1.10;0.47;;;;;;;;;;5011910;28;20068;-61
2021/11/18 08:48:41;;;;;;;2.15;0.70;;;;;;;;;;5017219;28;20046;-61
2021/11/18 08:51:08;;;;;;;1.45;0.50;;;;;;;;;;5014188;28;20036;-61
2021/11/18 08:53:37;;;;;;;2.15;0.50;;;;;;;;;;5011028;28;20597;-61
2021/11/18 08:56:03;;;;;;;3.08;0.50;;;;;;;;;;5012675;28;20025;-60
2021/11/18 08:58:31;;;;;;;1.60;0.40;;;;;;;;;;5023443;28;20689;-60
2021/11/18 09:01:04;;;;;;;1.20;0.30;;;;;;;;;;5016622;28;20266;-60
2021/11/18 09:03:33;;;;;;;0.82;0.30;;;;;;;;;;5014703;28;20025;-61
2021/11/18 09:06:01;;;;;;;1.50;0.40;;;;;;;;;;5016593;28;20030;-61
2021/11/18 09:08:27;;;;;;;2.38;0.40;;;;;;;;;;5010740;28;20026;-61
2021/11/18 09:10:52;;;;;;;1.45;0.52;;;;;;;;;;5018257;28;20527;-62
2021/11/18 09:13:19;;;;;;;2.00;0.40;;;;;;;;;;5017269;28;20034;-61
2021/11/18 09:15:45;;;;;;;7.32;0.60;;;;;;;;;;5018575;28;20037;-61
2021/11/18 09:18:12;;;;;;;2.35;0.40;;;;;;;;;;5017943;28;20437;-63
2021/11/18 09:20:39;;;;;;;5.10;0.45;;;;;;;;;;5019338;28;20033;-61
2021/11/18 09:23:07;;;;;;;2.53;0.45;;;;;;;;;;5023973;28;20240;-61
2021/11/18 09:25:40;;;;;;;5.43;0.40;;;;;;;;;;5012752;28;20029;-61
2021/11/18 09:28:06;;;;;;;2.03;0.45;;;;;;;;;;5018948;28;20033;-61
2021/11/18 09:31:03;;;;;;;5.07;0.40;;;;;;;;;;5020586;28;20388;-62
2021/11/18 09:33:29;;;;;;;3.47;0.30;;;;;;;;;;5017671;28;20035;-61
2021/11/18 09:36:00;;;;;;;13.07;2.75;;;;;;;;;;5017625;28;20116;-61
2021/11/18 09:38:29;;;;;;;5.80;0.50;;;;;;;;;;5011822;28;20029;-62
2021/11/18 09:41:12;;;;;;;8.23;1.35;;;;;;;;;;5022706;28;20298;-61
2021/11/18 09:44:06;;;;;;;0.82;0.22;;;;;;;;;;5014958;28;20057;-61
2021/11/18 09:46:40;;;;;;;2.78;0.30;;;;;;;;;;5018629;28;20030;-61
2021/11/18 09:49:40;;;;;;;3.58;0.50;;;;;;;;;;5019312;28;20496;-61
2021/11/18 09:52:43;;;;;;;2.38;0.57;;;;;;;;;;5009919;28;20054;-62
2021/11/18 09:55:12;;;;;;;1.83;0.30;;;;;;;;;;5018180;28;20528;-62
2021/11/18 09:58:17;;;;;;;2.28;0.25;;;;;;;;;;5018625;28;20033;-61
2021/11/18 10:01:13;;;;;;;0.63;0.20;;;;;;;;;;5016269;28;20072;-61
2021/11/18 10:03:41;;;;;;;1.25;0.22;;;;;;;;;;5018205;28;20029;-62
2021/11/18 10:06:12;;;;;;;3.75;0.30;;;;;;;;;;5017100;28;20040;-62
2021/11/18 10:09:05;;;;;;;4.13;0.45;;;;;;;;;;5016579;28;20057;-61
2021/11/18 10:12:02;;;;;;;2.28;0.55;;;;;;;;;;5010653;28;20045;-61
2021/11/18 10:14:42;;;;;;;2.45;0.40;;;;;;;;;;5014545;28;20038;-61
2021/11/18 10:17:33;;;;;;;1.00;0.20;;;;;;;;;;5013000;28;20284;-61
2021/11/18 10:20:13;;;;;;;2.08;0.22;;;;;;;;;;5017387;28;20053;-61
2021/11/18 10:22:43;;;;;;;0.65;0.40;;;;;;;;;;5018509;28;20036;-61
2021/11/18 10:25:16;;;;;;;2.58;0.40;;;;;;;;;;5020570;28;20401;-61
2021/11/18 10:27:45;;;;;;;1.38;0.30;;;;;;;;;;5020422;28;20025;-62
2021/11/18 10:30:36;;;;;;;0.85;0.35;;;;;;;;;;5019923;28;20033;-61
2021/11/18 10:33:07;;;;;;;0.65;0.40;;;;;;;;;;5016221;28;20100;-61
2021/11/18 10:35:54;;;;;;;2.85;0.30;;;;;;;;;;5018417;28;20029;-61
2021/11/18 10:38:24;;;;;;;0.68;0.40;;;;;;;;;;5019531;28;20030;-60
2021/11/18 10:40:58;;;;;;;2.25;0.60;;;;;;;;;;5012125;28;20025;-60
2021/11/18 10:43:27;;;;;;;2.80;0.40;;;;;;;;;;5022282;28;20072;-61
2021/11/18 10:46:08;;;;;;;0.50;0.43;;;;;;;;;;5020278;28;20065;-61
2021/11/18 10:48:38;;;;;;;3.47;0.60;;;;;;;;;;5018323;28;20036;-61
2021/11/18 10:51:13;;;;;;;2.13;0.45;;;;;;;;;;5020212;28;20208;-60
2021/11/18 10:53:50;;;;;;;3.35;0.30;;;;;;;;;;5019361;28;20105;-61
2021/11/18 10:56:22;;;;;;;1.52;0.50;;;;;;;;;;5018385;28;20079;-61
2021/11/18 10:59:01;;;;;;;2.70;0.40;;;;;;;;;;5025338;28;20434;-61
2021/11/18 11:01:27;;;;;;;2.28;0.30;;;;;;;;;;5019125;28;20155;-62
2021/11/18 11:03:59;;;;;;;4.63;1.10;;;;;;;;;;5021917;28;20057;-61
2021/11/18 11:06:30;;;;;;;1.77;0.40;;;;;;;;;;5023112;28;20030;-62
2021/11/18 11:09:04;;;;;;;2.30;1.13;;;;;;;;;;5020539;28;20447;-61
2021/11/18 11:11:58;;;;;;;2.15;0.30;;;;;;;;;;5022728;28;20048;-61
2021/11/18 11:14:32;;;;;;;3.15;0.60;;;;;;;;;;5017022;28;20022;-61
2021/11/18 11:17:23;;;;;;;1.42;0.30;;;;;;;;;;5020794;28;20029;-61
2021/11/18 11:20:05;;;;;;;0.52;0.30;;;;;;;;;;5015763;28;20485;-61
2021/11/18 11:23:01;;;;;;;3.33;0.30;;;;;;;;;;5020578;28;20026;-62
2021/11/18 11:25:54;;;;;;;6.53;0.60;;;;;;;;;;5018278;28;20037;-61
2021/11/18 11:28:47;;;;;;;3.80;0.65;;;;;;;;;;5015786;28;20033;-61
2021/11/18 11:31:32;;;;;;;2.20;0.47;;;;;;;;;;5015366;28;20132;-61
2021/11/18 11:34:15;;;;;;;2.45;0.85;;;;;;;;;;5021313;28;20025;-61
2021/11/18 11:37:10;;;;;;;5.32;0.35;;;;;;;;;;5016269;28;20021;-61
2021/11/18 11:39:57;;;;;;;3.08;0.52;;;;;;;;;;5018823;28;20030;-61
2021/11/18 11:42:47;;;;;;;2.05;0.45;;;;;;;;;;5019162;28;20025;-61
2021/11/18 11:45:35;;;;;;;1.70;0.40;;;;;;;;;;5020938;28;20325;-61
2021/11/18 11:48:18;;;;;;;1.65;0.55;;;;;;;;;;5023576;28;20029;-61
2021/11/18 11:50:52;;;;;;;2.15;0.40;;;;;;;;;;5017689;28;20419;-62
2021/11/18 11:53:38;;;;;;;0.98;0.57;;;;;;;;;;5011640;28;20036;-61
2021/11/18 11:56:06;;;;;;;0.93;0.40;;;;;;;;;;5013998;28;20386;-62
2021/11/18 11:58:40;;;;;;;1.50;0.50;;;;;;;;;;5018354;28;20120;-62
2021/11/18 12:01:52;;;;;;;3.03;0.50;;;;;;;;;;5015055;28;20044;-62
2021/11/18 12:04:41;;;;;;;0.40;0.30;;;;;;;;;;5014802;28;20034;-61
2021/11/18 12:07:29;;;;;;;2.60;0.50;;;;;;;;;;5016859;28;20500;-63
2021/11/18 12:10:24;;;;;;;2.53;0.50;;;;;;;;;;5015296;28;20038;-61
2021/11/18 12:13:07;;;;;;;0.85;0.40;;;;;;;;;;5018510;28;20044;-62
2021/11/18 12:15:41;;;;;;;4.18;0.43;;;;;;;;;;5018914;28;20023;-62
2021/11/18 12:18:30;;;;;;;4.22;0.90;;;;;;;;;;5019744;28;20401;-62
2021/11/18 12:20:59;;;;;;;1.23;0.60;;;;;;;;;;5021788;28;20026;-62
2021/11/18 12:24:00;;;;;;;6.68;2.25;;;;;;;;;;5017018;28;20033;-62
2021/11/18 12:26:41;;;;;;;1.30;0.43;;;;;;;;;;5014390;28;20568;-63
2021/11/18 12:29:16;;;;;;;3.70;0.45;;;;;;;;;;5022078;28;20029;-60
2021/11/18 12:32:00;;;;;;;3.60;0.75;;;;;;;;;;5021370;28;20120;-60
2021/11/18 12:34:50;;;;;;;2.90;0.95;;;;;;;;;;5012687;28;20088;-60
2021/11/18 12:37:33;;;;;;;3.40;0.40;;;;;;;;;;5014148;28;20053;-61
2021/11/18 12:40:36;;;;;;;1.52;0.40;;;;;;;;;;5022616;28;20028;-61
2021/11/18 12:43:10;;;;;;;3.13;0.60;;;;;;;;;;5018826;28;20032;-60
2021/11/18 12:45:55;;;;;;;3.70;0.60;;;;;;;;;;5006067;28;20304;-60
2021/11/18 12:48:46;;;;;;;2.90;0.75;;;;;;;;;;5020129;28;20525;-60
2021/11/18 12:51:21;;;;;;;4.43;1.10;;;;;;;;;;5008670;28;20496;-60
2021/11/18 12:54:17;;;;;;;4.72;0.90;;;;;;;;;;5020225;28;20037;-61
2021/11/18 12:56:48;;;;;;;3.90;1.35;;;;;;;;;;5021656;28;20045;-61
2021/11/18 12:59:37;;;;;;;6.07;1.17;;;;;;;;;;5019805;28;20400;-60
2021/11/18 13:02:10;;;;;;;4.68;1.38;;;;;;;;;;5018096;28;20052;-60
2021/11/18 13:04:42;;;;;;;8.50;1.13;;;;;;;;;;5019729;28;20075;-61
2021/11/18 13:07:13;;;;;;;10.48;1.70;;;;;;;;;;5023206;28;20065;-60
2021/11/18 13:10:09;;;;;;;10.85;1.15;;;;;;;;;;5015581;28;20022;-60
2021/11/18 13:12:37;;;;;;;1.83;0.98;;;;;;;;;;5021169;28;20552;-61
2021/11/18 13:15:21;;;;;;;2.80;0.95;;;;;;;;;;5016662;28;20036;-61
2021/11/18 13:17:51;;;;;;;5.00;1.42;;;;;;;;;;5019190;28;20022;-61
2021/11/18 13:20:35;;;;;;;5.05;0.60;;;;;;;;;;5020505;28;20098;-60
2021/11/18 13:23:22;;;;;;;1.73;0.60;;;;;;;;;;5016022;28;20029;-60
2021/11/18 13:25:50;;;;;;;3.55;1.88;;;;;;;;;;5016148;28;20048;-60
2021/11/18 13:28:27;;;;;;;1.10;0.73;;;;;;;;;;5018967;28;20072;-60
2021/11/18 13:30:57;;;;;;;1.75;0.65;;;;;;;;;;5014479;28;20037;-60
2021/11/18 13:33:31;;;;;;;2.05;0.60;;;;;;;;;;5020538;28;20029;-60
2021/11/18 13:36:03;;;;;;;8.27;1.05;;;;;;;;;;5016368;28;20029;-60
2021/11/18 13:38:32;;;;;;;1.30;0.70;;;;;;;;;;5019366;28;20026;-61
2021/11/18 13:41:08;;;;;;;8.77;1.02;;;;;;;;;;5016491;28;20030;-60
2021/11/18 13:43:51;;;;;;;3.63;1.15;;;;;;;;;;5016250;28;20029;-60
2021/11/18 13:46:35;;;;;;;3.15;0.80;;;;;;;;;;5020575;28;20065;-60
2021/11/18 13:49:20;;;;;;;3.17;0.52;;;;;;;;;;5014799;28;20025;-60
2021/11/18 13:51:53;;;;;;;3.92;0.77;;;;;;;;;;5020918;28;20029;-59
2021/11/18 13:54:39;;;;;;;3.60;0.75;;;;;;;;;;5017676;28;20025;-59
2021/11/18 13:57:30;;;;;;;8.23;0.70;;;;;;;;;;5017002;28;20404;-61
2021/11/18 14:00:42;;;;;;;1.83;0.60;;;;;;;;;;5016843;28;20091;-60
2021/11/18 14:03:17;;;;;;;0.90;0.57;;;;;;;;;;5015773;28;20042;-60
2021/11/18 14:05:46;;;;;;;2.85;0.98;;;;;;;;;;5015752;28;20029;-60
2021/11/18 14:08:25;;;;;;;2.78;1.02;;;;;;;;;;5025243;28;20032;-60
2021/11/18 14:11:22;;;;;;;6.43;1.00;;;;;;;;;;5015646;28;20527;-60
2021/11/18 14:14:21;;;;;;;6.95;1.00;;;;;;;;;;5016291;28;20053;-60
2021/11/18 14:16:47;;;;;;;5.18;0.85;;;;;;;;;;5018791;28;20384;-60
2021/11/18 14:19:22;;;;;;;6.82;1.02;;;;;;;;;;5014928;28;20034;-61
2021/11/18 14:21:49;;;;;;;3.15;1.10;;;;;;;;;;5024393;28;20377;-60
2021/11/18 14:24:34;;;;;;;9.35;1.58;;;;;;;;;;5020807;28;20072;-60
2021/11/18 14:27:05;;;;;;;11.02;1.17;;;;;;;;;;5017849;28;20556;-60
2021/11/18 14:29:48;;;;;;;4.63;1.10;;;;;;;;;;5022953;28;20045;-60
2021/11/18 14:32:41;;;;;;;3.72;1.23;;;;;;;;;;5028012;28;20377;-61
2021/11/18 14:35:24;;;;;;;8.70;2.17;;;;;;;;;;5021784;28;20037;-60
2021/11/18 14:38:19;;;;;;;7.10;2.03;;;;;;;;;;5020527;28;20047;-60
2021/11/18 14:40:56;;;;;;;4.45;1.65;;;;;;;;;;5020506;28;20044;-61
2021/11/18 14:43:23;;;;;;;2.38;1.15;;;;;;;;;;5015552;28;20026;-61
2021/11/18 14:46:15;;;;;;;11.13;2.05;;;;;;;;;;5020327;28;20085;-60
2021/11/18 14:48:48;;;;;;;6.07;1.45;;;;;;;;;;5018804;28;20638;-60
2021/11/18 14:51:19;;;;;;;6.00;1.23;;;;;;;;;;5017656;28;20463;-60
2021/11/18 14:53:51;;;;;;;4.80;1.70;;;;;;;;;;5014652;28;20607;-61
2021/11/18 14:56:22;;;;;;;9.90;1.70;;;;;;;;;;5015361;28;20060;-61
2021/11/18 14:58:50;;;;;;;8.35;1.48;;;;;;;;;;5016952;28;20037;-60
2021/11/18 15:01:26;;;;;;;9.20;1.95;;;;;;;;;;5014848;28;20025;-61
2021/11/18 15:03:59;;;;;;;5.63;1.77;;;;;;;;;;5023656;28;20032;-60
2021/11/18 15:06:29;;;;;;;9.10;1.85;;;;;;;;;;5018355;28;20022;-60
2021/11/18 15:09:00;;;;;;;7.68;2.45;;;;;;;;;;5011270;28;20088;-60